createdAt,value
2018-12-11T00:00:20.227Z,0.00
2018-12-11T00:01:20.396Z,0.00
2018-12-11T00:02:20.203Z,0.00
2018-12-11T00:03:20.197Z,0.00
2018-12-11T00:04:20.684Z,0.00
2018-12-11T00:05:20.175Z,0.00
2018-12-11T00:06:20.163Z,0.00
2018-12-11T00:07:20.261Z,0.00
2018-12-11T00:08:20.143Z,0.00
2018-12-11T00:09:21.096Z,0.00
2018-12-11T00:10:20.484Z,0.00
2018-12-11T00:11:20.143Z,0.00
2018-12-11T00:12:21.094Z,0.00
2018-12-11T00:13:20.212Z,0.00
2018-12-11T00:14:20.592Z,0.00
2018-12-11T00:15:20.068Z,0.00
2018-12-11T00:16:20.510Z,0.00
2018-12-11T00:17:20.051Z,0.00
2018-12-11T00:18:20.041Z,0.00
2018-12-11T00:19:20.427Z,0.00
2018-12-11T00:20:20.018Z,0.00
2018-12-11T00:21:20.006Z,0.00
2018-12-11T00:22:19.998Z,0.00
2018-12-11T00:23:20.004Z,0.00
2018-12-11T00:24:20.593Z,0.00
2018-12-11T00:25:21.015Z,0.00
2018-12-11T00:26:19.954Z,0.00
2018-12-11T00:27:19.946Z,0.00
2018-12-11T00:28:20.378Z,0.00
2018-12-11T00:29:19.924Z,0.00
2018-12-11T00:30:19.915Z,0.00
2018-12-11T00:31:20.218Z,0.00
2018-12-11T00:32:19.892Z,0.00
2018-12-11T00:33:19.883Z,0.00
2018-12-11T00:34:19.881Z,0.00
2018-12-11T00:35:20.215Z,0.00
2018-12-11T00:36:19.852Z,0.00
2018-12-11T00:37:20.207Z,0.00
2018-12-11T00:38:19.831Z,0.00
2018-12-11T00:39:19.820Z,0.00
2018-12-11T00:40:19.812Z,0.00
2018-12-11T00:41:19.800Z,0.00
2018-12-11T00:42:20.259Z,0.00
2018-12-11T00:43:20.014Z,0.00
2018-12-11T00:44:19.773Z,0.00
2018-12-11T00:45:19.759Z,0.00
2018-12-11T00:46:19.752Z,0.00
2018-12-11T00:47:20.907Z,0.00
2018-12-11T00:48:19.726Z,0.00
2018-12-11T00:49:20.380Z,0.00
2018-12-11T00:50:19.707Z,0.00
2018-12-11T00:51:19.695Z,0.00
2018-12-11T00:52:19.687Z,0.00
2018-12-11T00:53:19.675Z,0.00
2018-12-11T00:54:19.664Z,0.00
2018-12-11T00:55:19.867Z,0.00
2018-12-11T00:56:22.199Z,0.00
2018-12-11T00:57:19.633Z,0.00
2018-12-11T00:58:19.634Z,0.00
2018-12-11T00:59:19.619Z,0.00
2018-12-11T01:00:19.604Z,0.00
2018-12-11T01:01:19.745Z,0.00
2018-12-11T01:02:19.581Z,0.00
2018-12-11T01:03:19.979Z,0.00
2018-12-11T01:04:19.560Z,0.00
2018-12-11T01:05:19.549Z,0.00
2018-12-11T01:06:19.542Z,0.00
2018-12-11T01:07:19.685Z,0.00
2018-12-11T01:08:19.520Z,0.00
2018-12-11T01:09:19.508Z,0.00
2018-12-11T01:10:19.819Z,0.00
2018-12-11T01:11:19.488Z,0.00
2018-12-11T01:12:19.477Z,0.00
2018-12-11T01:13:19.938Z,0.00
2018-12-11T01:14:19.463Z,0.00
2018-12-11T01:15:19.446Z,0.00
2018-12-11T01:16:19.437Z,0.00
2018-12-11T01:17:19.866Z,0.00
2018-12-11T01:18:19.417Z,0.00
2018-12-11T01:19:19.558Z,0.00
2018-12-11T01:20:19.394Z,0.00
2018-12-11T01:21:19.383Z,0.00
2018-12-11T01:22:19.372Z,0.00
2018-12-11T01:23:19.369Z,0.00
2018-12-11T01:24:19.702Z,0.00
2018-12-11T01:25:19.493Z,0.00
2018-12-11T01:26:19.330Z,0.00
2018-12-11T01:27:19.321Z,0.00
2018-12-11T01:28:19.311Z,0.00
2018-12-11T01:29:19.297Z,0.00
2018-12-11T01:30:19.291Z,0.00
2018-12-11T01:31:19.719Z,0.00
2018-12-11T01:32:19.269Z,0.00
2018-12-11T01:33:19.259Z,0.00
2018-12-11T01:34:19.246Z,0.00
2018-12-11T01:35:19.239Z,0.00
2018-12-11T01:36:19.228Z,0.00
2018-12-11T01:37:19.862Z,0.00
2018-12-11T01:38:19.177Z,0.00
2018-12-11T01:39:19.168Z,0.00
2018-12-11T01:40:19.157Z,0.00
2018-12-11T01:41:19.121Z,0.00
2018-12-11T01:42:19.129Z,0.00
2018-12-11T01:43:19.222Z,0.00
2018-12-11T01:44:19.390Z,0.00
2018-12-11T01:45:19.074Z,0.00
2018-12-11T01:46:19.064Z,0.00
2018-12-11T01:47:19.055Z,0.00
2018-12-11T01:48:19.044Z,0.00
2018-12-11T01:49:19.424Z,0.00
2018-12-11T01:50:19.519Z,0.00
2018-12-11T01:51:19.429Z,0.00
2018-12-11T01:52:19.002Z,0.00
2018-12-11T01:53:18.999Z,0.00
2018-12-11T01:54:18.979Z,0.00
2018-12-11T01:55:19.087Z,0.00
2018-12-11T01:56:18.959Z,0.00
2018-12-11T01:57:18.947Z,0.00
2018-12-11T01:58:19.262Z,0.00
2018-12-11T01:59:18.930Z,0.00
2018-12-11T02:00:18.916Z,0.00
2018-12-11T02:01:19.025Z,0.00
2018-12-11T02:02:18.936Z,0.00
2018-12-11T02:03:18.886Z,0.00
2018-12-11T02:04:18.874Z,0.00
2018-12-11T02:05:19.179Z,0.00
2018-12-11T02:06:18.856Z,0.00
2018-12-11T02:07:18.976Z,0.00
2018-12-11T02:08:18.834Z,0.00
2018-12-11T02:09:18.824Z,0.00
2018-12-11T02:10:18.814Z,0.00
2018-12-11T02:11:18.807Z,0.00
2018-12-11T02:12:19.149Z,0.00
2018-12-11T02:13:18.900Z,0.00
2018-12-11T02:14:18.772Z,0.00
2018-12-11T02:15:18.763Z,0.00
2018-12-11T02:16:18.753Z,0.00
2018-12-11T02:17:18.749Z,0.00
2018-12-11T02:18:18.739Z,0.00
2018-12-11T02:19:19.228Z,0.00
2018-12-11T02:20:18.711Z,0.00
2018-12-11T02:21:18.715Z,0.00
2018-12-11T02:22:18.695Z,0.00
2018-12-11T02:23:18.679Z,0.00
2018-12-11T02:24:18.686Z,0.00
2018-12-11T02:25:19.062Z,0.00
2018-12-11T02:26:19.043Z,0.00
2018-12-11T02:27:18.639Z,0.00
2018-12-11T02:28:18.628Z,0.00
2018-12-11T02:29:18.617Z,0.00
2018-12-11T02:30:18.614Z,0.00
2018-12-11T02:31:18.724Z,0.00
2018-12-11T02:32:18.587Z,0.00
2018-12-11T02:33:18.884Z,0.00
2018-12-11T02:34:18.567Z,0.00
2018-12-11T02:35:18.560Z,0.00
2018-12-11T02:36:18.551Z,0.00
2018-12-11T02:37:18.654Z,0.00
2018-12-11T02:38:18.524Z,0.00
2018-12-11T02:39:18.518Z,0.00
2018-12-11T02:40:18.912Z,0.00
2018-12-11T02:41:18.496Z,0.00
2018-12-11T02:42:18.484Z,0.00
2018-12-11T02:43:18.769Z,0.00
2018-12-11T02:44:18.465Z,0.00
2018-12-11T02:45:18.453Z,0.00
2018-12-11T02:46:18.443Z,0.00
2018-12-11T02:47:18.749Z,0.00
2018-12-11T02:48:18.424Z,0.00
2018-12-11T02:49:18.632Z,0.00
2018-12-11T02:50:18.402Z,0.00
2018-12-11T02:51:18.391Z,0.00
2018-12-11T02:52:18.382Z,0.00
2018-12-11T02:53:18.369Z,0.00
2018-12-11T02:54:18.794Z,0.00
2018-12-11T02:55:18.469Z,0.00
2018-12-11T02:56:18.337Z,0.00
2018-12-11T02:57:18.339Z,0.00
2018-12-11T02:58:18.315Z,0.00
2018-12-11T02:59:18.306Z,0.00
2018-12-11T03:01:40.025Z,0.00
2018-12-11T03:02:39.934Z,0.00
2018-12-11T03:03:39.923Z,0.00
2018-12-11T03:04:39.914Z,0.00
2018-12-11T03:05:39.915Z,0.00
2018-12-11T03:06:39.891Z,0.00
2018-12-11T03:07:41.335Z,0.00
2018-12-11T03:08:39.873Z,0.00
2018-12-11T03:09:39.859Z,0.00
2018-12-11T03:10:40.652Z,0.00
2018-12-11T03:11:39.842Z,0.00
2018-12-11T03:12:39.827Z,0.00
2018-12-11T03:13:39.861Z,0.00
2018-12-11T03:14:40.111Z,0.00
2018-12-11T03:15:39.800Z,0.00
2018-12-11T03:16:39.788Z,0.00
2018-12-11T03:17:39.775Z,0.00
2018-12-11T03:18:39.766Z,0.00
2018-12-11T03:19:39.827Z,0.00
2018-12-11T03:20:39.775Z,0.00
2018-12-11T03:21:40.127Z,0.00
2018-12-11T03:22:39.732Z,0.00
2018-12-11T03:23:39.714Z,0.00
2018-12-11T03:24:39.703Z,0.00
2018-12-11T03:25:39.734Z,0.00
2018-12-11T03:26:39.684Z,0.00
2018-12-11T03:27:39.671Z,0.00
2018-12-11T03:28:40.002Z,0.00
2018-12-11T03:29:39.651Z,0.00
2018-12-11T03:30:39.642Z,0.00
2018-12-11T03:31:39.671Z,0.00
2018-12-11T03:32:39.620Z,0.00
2018-12-11T03:33:39.612Z,0.00
2018-12-11T03:34:39.601Z,0.00
2018-12-11T03:35:40.038Z,0.00
2018-12-11T03:36:39.577Z,0.00
2018-12-11T03:37:39.614Z,0.00
2018-12-11T03:38:39.555Z,0.00
2018-12-11T03:39:39.546Z,0.00
2018-12-11T03:40:39.534Z,0.00
2018-12-11T03:41:39.526Z,0.00
2018-12-11T03:42:39.910Z,0.00
2018-12-11T03:43:39.606Z,0.00
2018-12-11T03:44:39.499Z,0.00
2018-12-11T03:45:39.517Z,0.00
2018-12-11T03:46:39.495Z,0.00
2018-12-11T03:47:39.461Z,0.00
2018-12-11T03:48:39.453Z,0.00
2018-12-11T03:49:39.956Z,0.00
2018-12-11T03:50:39.430Z,0.00
2018-12-11T03:51:39.420Z,0.00
2018-12-11T03:52:39.410Z,0.00
2018-12-11T03:53:39.399Z,0.00
2018-12-11T03:54:39.389Z,0.00
2018-12-11T03:55:39.667Z,0.00
2018-12-11T03:56:39.761Z,0.00
2018-12-11T03:57:39.360Z,0.00
2018-12-11T03:58:39.346Z,0.00
2018-12-11T03:59:39.338Z,0.00
2018-12-11T04:00:39.377Z,0.00
2018-12-11T04:01:39.363Z,0.00
2018-12-11T04:02:39.308Z,0.00
2018-12-11T04:03:39.698Z,0.00
2018-12-11T04:04:39.284Z,0.00
2018-12-11T04:05:39.275Z,0.00
2018-12-11T04:06:39.264Z,0.00
2018-12-11T04:07:39.295Z,0.00
2018-12-11T04:08:39.244Z,0.00
2018-12-11T04:09:39.238Z,0.00
2018-12-11T04:10:39.542Z,0.00
2018-12-11T04:11:39.218Z,0.00
2018-12-11T04:12:39.204Z,0.00
2018-12-11T04:13:39.411Z,0.00
2018-12-11T04:14:39.181Z,0.00
2018-12-11T04:15:39.171Z,0.00
2018-12-11T04:16:39.161Z,0.00
2018-12-11T04:17:39.582Z,0.00
2018-12-11T04:18:39.138Z,0.00
2018-12-11T04:19:39.169Z,0.00
2018-12-11T04:20:39.116Z,0.00
2018-12-11T04:21:39.114Z,0.00
2018-12-11T04:22:39.096Z,0.00
2018-12-11T04:23:39.085Z,0.00
2018-12-11T04:24:39.422Z,0.00
2018-12-11T04:25:39.106Z,0.00
2018-12-11T04:26:39.054Z,0.00
2018-12-11T04:27:39.042Z,0.00
2018-12-11T04:28:39.032Z,0.00
2018-12-11T04:29:39.024Z,0.00
2018-12-11T04:30:39.013Z,0.00
2018-12-11T04:31:39.051Z,0.00
2018-12-11T04:32:39.001Z,0.00
2018-12-11T04:33:38.979Z,0.00
2018-12-11T04:34:38.969Z,0.00
2018-12-11T04:35:38.957Z,0.00
2018-12-11T04:36:38.947Z,0.00
2018-12-11T04:37:39.294Z,0.00
2018-12-11T04:38:38.927Z,0.00
2018-12-11T04:39:38.914Z,0.00
2018-12-11T04:40:38.905Z,0.00
2018-12-11T04:41:38.895Z,0.00
2018-12-11T04:42:38.883Z,0.00
2018-12-11T04:43:38.914Z,0.00
2018-12-11T04:44:39.343Z,0.00
2018-12-11T04:45:38.851Z,0.00
2018-12-11T04:46:38.862Z,0.00
2018-12-11T04:47:38.848Z,0.00
2018-12-11T04:48:38.910Z,0.00
2018-12-11T04:49:39.180Z,0.00
2018-12-11T04:50:38.975Z,0.00
2018-12-11T04:51:39.194Z,0.00
2018-12-11T04:52:38.779Z,0.00
2018-12-11T04:53:38.774Z,0.00
2018-12-11T04:54:38.757Z,0.00
2018-12-11T04:55:38.814Z,0.00
2018-12-11T04:56:38.741Z,0.00
2018-12-11T04:57:38.757Z,0.00
2018-12-11T04:58:39.044Z,0.00
2018-12-11T04:59:38.703Z,0.00
2018-12-11T05:00:38.693Z,0.00
2018-12-11T05:01:38.722Z,0.00
2018-12-11T05:02:38.699Z,0.00
2018-12-11T05:03:38.662Z,0.00
2018-12-11T05:04:38.666Z,0.00
2018-12-11T05:05:39.080Z,0.00
2018-12-11T05:06:38.657Z,0.00
2018-12-11T05:07:38.716Z,0.00
2018-12-11T05:08:38.615Z,0.00
2018-12-11T05:09:38.601Z,0.00
2018-12-11T05:10:38.608Z,0.00
2018-12-11T05:11:38.578Z,0.00
2018-12-11T05:12:38.603Z,0.00
2018-12-11T05:13:38.607Z,0.00
2018-12-11T05:14:38.545Z,0.00
2018-12-11T05:15:38.556Z,0.00
2018-12-11T05:16:38.530Z,0.00
2018-12-11T05:17:38.934Z,0.00
2018-12-11T05:18:38.535Z,0.00
2018-12-11T05:19:38.560Z,0.00
2018-12-11T05:20:38.516Z,0.00
2018-12-11T05:21:38.483Z,0.00
2018-12-11T05:22:38.482Z,0.00
2018-12-11T05:23:39.804Z,0.00
2018-12-11T05:24:38.556Z,0.00
2018-12-11T05:25:39.321Z,0.00
2018-12-11T05:26:38.425Z,0.00
2018-12-11T05:27:38.412Z,0.00
2018-12-11T05:28:38.401Z,0.00
2018-12-11T05:29:38.419Z,0.00
2018-12-11T05:30:38.810Z,0.00
2018-12-11T05:31:38.469Z,0.00
2018-12-11T05:32:38.369Z,0.00
2018-12-11T05:33:38.358Z,0.00
2018-12-11T05:34:38.349Z,0.00
2018-12-11T05:35:38.328Z,0.00
2018-12-11T05:36:38.655Z,0.00
2018-12-11T05:37:38.376Z,0.00
2018-12-11T05:38:38.294Z,0.00
2018-12-11T05:39:38.284Z,0.00
2018-12-11T05:40:38.274Z,0.00
2018-12-11T05:41:38.262Z,0.00
2018-12-11T05:42:38.253Z,0.00
2018-12-11T05:43:38.717Z,0.00
2018-12-11T05:44:38.230Z,0.00
2018-12-11T05:45:38.220Z,0.00
2018-12-11T05:46:38.213Z,0.00
2018-12-11T05:47:39.157Z,0.00
2018-12-11T05:48:38.194Z,0.00
2018-12-11T05:49:38.225Z,0.00
2018-12-11T05:50:38.447Z,0.00
2018-12-11T05:51:38.157Z,0.00
2018-12-11T05:52:38.147Z,0.00
2018-12-11T05:53:38.656Z,0.00
2018-12-11T05:54:38.126Z,0.00
2018-12-11T05:55:38.158Z,0.00
2018-12-11T05:56:38.106Z,0.00
2018-12-11T05:57:38.565Z,0.00
2018-12-11T05:58:38.655Z,0.00
2018-12-11T05:59:38.072Z,0.00
2018-12-11T06:00:38.062Z,0.00
2018-12-11T06:01:38.116Z,0.00
2018-12-11T06:02:38.655Z,0.00
2018-12-11T06:03:38.032Z,0.00
2018-12-11T06:04:38.408Z,0.00
2018-12-11T06:05:38.011Z,0.00
2018-12-11T06:06:38.019Z,0.00
2018-12-11T06:07:38.032Z,0.00
2018-12-11T06:08:37.976Z,0.00
2018-12-11T06:09:37.967Z,0.00
2018-12-11T06:10:38.658Z,0.00
2018-12-11T06:11:38.447Z,0.00
2018-12-11T06:12:37.935Z,0.00
2018-12-11T06:13:37.964Z,0.00
2018-12-11T06:14:37.913Z,0.00
2018-12-11T06:15:37.903Z,0.00
2018-12-11T06:16:38.616Z,0.00
2018-12-11T06:17:37.885Z,0.00
2018-12-11T06:18:37.870Z,0.00
2018-12-11T06:19:38.383Z,0.00
2018-12-11T06:20:37.854Z,0.00
2018-12-11T06:21:37.838Z,0.00
2018-12-11T06:22:37.828Z,0.00
2018-12-11T06:23:37.818Z,0.00
2018-12-11T06:24:38.117Z,0.00
2018-12-11T06:25:37.850Z,0.00
2018-12-11T06:26:37.786Z,0.00
2018-12-11T06:27:37.804Z,0.00
2018-12-11T06:28:37.762Z,0.00
2018-12-11T06:29:37.753Z,0.00
2018-12-11T06:30:37.815Z,0.00
2018-12-11T06:31:37.799Z,0.00
2018-12-11T06:32:37.723Z,0.00
2018-12-11T06:33:37.712Z,0.00
2018-12-11T06:34:37.709Z,0.00
2018-12-11T06:35:37.694Z,0.00
2018-12-11T06:36:37.680Z,0.00
2018-12-11T06:37:38.660Z,0.00
2018-12-11T06:38:37.684Z,0.00
2018-12-11T06:39:37.646Z,0.00
2018-12-11T06:40:37.641Z,0.00
2018-12-11T06:41:37.626Z,0.00
2018-12-11T06:42:37.613Z,0.00
2018-12-11T06:43:38.611Z,0.00
2018-12-11T06:44:38.057Z,0.00
2018-12-11T06:45:37.591Z,0.00
2018-12-11T06:46:37.587Z,0.00
2018-12-11T06:47:37.602Z,0.00
2018-12-11T06:48:37.550Z,0.00
2018-12-11T06:49:37.578Z,0.00
2018-12-11T06:50:37.531Z,0.00
2018-12-11T06:51:38.641Z,0.00
2018-12-11T06:52:37.508Z,0.00
2018-12-11T06:53:37.495Z,0.00
2018-12-11T06:54:37.490Z,0.00
2018-12-11T06:55:37.538Z,0.00
2018-12-11T06:56:37.465Z,0.00
2018-12-11T06:57:37.456Z,0.00
2018-12-11T06:58:37.919Z,0.00
2018-12-11T06:59:37.450Z,0.00
2018-12-11T07:00:37.430Z,0.00
2018-12-11T07:01:37.461Z,0.00
2018-12-11T07:02:37.404Z,0.00
2018-12-11T07:03:37.389Z,0.00
2018-12-11T07:04:37.379Z,0.00
2018-12-11T07:05:37.770Z,0.00
2018-12-11T07:06:37.379Z,0.00
2018-12-11T07:07:37.405Z,0.00
2018-12-11T07:08:37.339Z,0.00
2018-12-11T07:09:37.328Z,0.00
2018-12-11T07:10:37.314Z,0.00
2018-12-11T07:11:37.303Z,0.00
2018-12-11T07:12:37.606Z,0.00
2018-12-11T07:13:39.800Z,0.00
2018-12-11T07:14:37.284Z,0.00
2018-12-11T07:15:37.331Z,0.00
2018-12-11T07:16:37.263Z,0.00
2018-12-11T07:17:37.261Z,0.00
2018-12-11T07:18:37.240Z,0.00
2018-12-11T07:19:37.885Z,0.00
2018-12-11T07:20:37.214Z,0.00
2018-12-11T07:21:37.202Z,0.00
2018-12-11T07:22:37.189Z,0.00
2018-12-11T07:23:37.183Z,0.00
2018-12-11T07:24:37.167Z,0.00
2018-12-11T07:25:37.199Z,0.00
2018-12-11T07:26:37.495Z,0.00
2018-12-11T07:27:37.137Z,0.00
2018-12-11T07:28:37.126Z,0.00
2018-12-11T07:29:37.114Z,0.00
2018-12-11T07:30:37.107Z,0.00
2018-12-11T07:31:37.157Z,0.00
2018-12-11T07:32:37.636Z,0.00
2018-12-11T07:33:37.521Z,0.00
2018-12-11T07:34:37.063Z,0.00
2018-12-11T07:35:37.053Z,0.00
2018-12-11T07:36:37.051Z,0.00
2018-12-11T07:37:37.078Z,0.00
2018-12-11T07:38:37.022Z,0.00
2018-12-11T07:39:37.079Z,0.00
2018-12-11T07:40:37.465Z,0.00
2018-12-11T07:41:36.992Z,0.00
2018-12-11T07:42:36.985Z,5.62
2018-12-11T07:43:37.018Z,5.62
2018-12-11T07:44:36.961Z,5.62
2018-12-11T07:45:36.950Z,5.62
2018-12-11T07:46:36.939Z,5.62
2018-12-11T07:47:37.308Z,5.62
2018-12-11T07:48:36.918Z,5.62
2018-12-11T07:49:37.201Z,5.62
2018-12-11T07:50:36.900Z,11.25
2018-12-11T07:51:36.904Z,11.25
2018-12-11T07:52:36.879Z,11.25
2018-12-11T07:53:37.641Z,11.25
2018-12-11T07:54:36.858Z,5.62
2018-12-11T07:55:36.886Z,11.25
2018-12-11T07:56:36.838Z,11.25
2018-12-11T07:57:36.828Z,11.25
2018-12-11T07:58:36.815Z,11.25
2018-12-11T07:59:37.177Z,11.25
2018-12-11T08:00:36.797Z,11.25
2018-12-11T08:01:36.832Z,11.25
2018-12-11T08:02:36.774Z,11.25
2018-12-11T08:03:36.768Z,11.25
2018-12-11T08:04:36.848Z,11.25
2018-12-11T08:05:37.620Z,11.25
2018-12-11T08:06:36.752Z,11.25
2018-12-11T08:07:36.795Z,11.25
2018-12-11T08:08:36.733Z,11.25
2018-12-11T08:09:36.740Z,11.25
2018-12-11T08:10:36.692Z,16.88
2018-12-11T08:11:37.066Z,16.88
2018-12-11T08:12:36.733Z,11.25
2018-12-11T08:13:36.700Z,11.25
2018-12-11T08:14:36.650Z,11.25
2018-12-11T08:15:36.639Z,11.25
2018-12-11T08:16:36.628Z,11.25
2018-12-11T08:17:36.619Z,11.25
2018-12-11T08:18:37.097Z,11.25
2018-12-11T08:19:36.640Z,11.25
2018-12-11T08:20:36.594Z,11.25
2018-12-11T08:21:36.633Z,11.25
2018-12-11T08:22:36.572Z,11.25
2018-12-11T08:23:36.581Z,11.25
2018-12-11T08:24:36.544Z,16.88
2018-12-11T08:25:37.781Z,16.88
2018-12-11T08:26:36.537Z,16.88
2018-12-11T08:27:36.513Z,16.88
2018-12-11T08:28:36.503Z,11.25
2018-12-11T08:29:36.497Z,11.25
2018-12-11T08:30:36.487Z,11.25
2018-12-11T08:31:36.895Z,11.25
2018-12-11T08:32:36.461Z,11.25
2018-12-11T08:33:36.472Z,11.25
2018-12-11T08:34:36.439Z,11.25
2018-12-11T08:35:36.437Z,16.88
2018-12-11T08:36:36.419Z,16.88
2018-12-11T08:37:36.460Z,16.88
2018-12-11T08:38:37.076Z,22.50
2018-12-11T08:39:36.388Z,22.50
2018-12-11T08:40:36.381Z,22.50
2018-12-11T08:41:36.368Z,22.50
2018-12-11T08:42:36.363Z,16.88
2018-12-11T08:43:36.399Z,16.88
2018-12-11T08:44:36.501Z,16.88
2018-12-11T08:45:36.765Z,16.88
2018-12-11T08:46:36.395Z,16.88
2018-12-11T08:47:36.310Z,16.88
2018-12-11T08:48:36.359Z,22.50
2018-12-11T08:49:36.323Z,28.12
2018-12-11T08:50:36.275Z,28.12
2018-12-11T08:51:36.278Z,33.75
2018-12-11T08:52:36.686Z,33.75
2018-12-11T08:53:36.248Z,39.38
2018-12-11T08:54:36.240Z,50.62
2018-12-11T08:55:36.505Z,56.25
2018-12-11T08:56:36.213Z,50.62
2018-12-11T08:57:36.208Z,45.00
2018-12-11T08:58:36.191Z,56.25
2018-12-11T08:59:36.524Z,61.88
2018-12-11T09:00:37.219Z,61.88
2018-12-11T09:01:36.162Z,56.25
2018-12-11T09:02:36.152Z,61.88
2018-12-11T09:03:36.184Z,61.88
2018-12-11T09:04:36.133Z,56.25
2018-12-11T09:05:36.122Z,39.38
2018-12-11T09:06:36.147Z,56.25
2018-12-11T09:07:36.668Z,67.50
2018-12-11T09:08:36.105Z,67.50
2018-12-11T09:09:36.634Z,67.50
2018-12-11T09:10:36.080Z,61.88
2018-12-11T09:11:36.627Z,56.25
2018-12-11T09:12:36.501Z,61.88
2018-12-11T09:13:36.083Z,61.88
2018-12-11T09:14:36.061Z,56.25
2018-12-11T09:15:36.017Z,67.50
2018-12-11T09:16:36.005Z,67.50
2018-12-11T09:17:36.026Z,61.88
2018-12-11T09:18:36.036Z,78.75
2018-12-11T09:19:36.450Z,78.75
2018-12-11T09:20:35.965Z,73.12
2018-12-11T09:21:35.963Z,73.12
2018-12-11T09:22:35.959Z,61.88
2018-12-11T09:23:36.661Z,56.25
2018-12-11T09:24:35.966Z,61.88
2018-12-11T09:25:36.616Z,61.88
2018-12-11T09:26:36.285Z,67.50
2018-12-11T09:27:35.893Z,61.88
2018-12-11T09:28:36.616Z,50.62
2018-12-11T09:29:35.872Z,50.62
2018-12-11T09:30:36.125Z,56.25
2018-12-11T09:31:35.850Z,61.88
2018-12-11T09:32:35.846Z,50.62
2018-12-11T09:33:36.169Z,45.00
2018-12-11T09:34:35.820Z,50.62
2018-12-11T09:35:35.808Z,45.00
2018-12-11T09:36:35.875Z,39.38
2018-12-11T09:37:35.795Z,45.00
2018-12-11T09:38:35.788Z,39.38
2018-12-11T09:39:35.786Z,50.62
2018-12-11T09:40:37.203Z,61.88
2018-12-11T09:41:35.794Z,50.62
2018-12-11T09:42:35.802Z,45.00
2018-12-11T09:43:35.747Z,45.00
2018-12-11T09:44:35.765Z,50.62
2018-12-11T09:45:35.705Z,67.50
2018-12-11T09:46:35.706Z,61.88
2018-12-11T09:47:36.108Z,61.88
2018-12-11T09:48:35.748Z,73.12
2018-12-11T09:49:35.664Z,90.00
2018-12-11T09:50:35.658Z,78.75
2018-12-11T09:51:35.659Z,90.00
2018-12-11T09:52:35.651Z,67.50
2018-12-11T09:53:35.633Z,67.50
2018-12-11T09:54:36.116Z,73.12
2018-12-11T09:55:35.639Z,78.75
2018-12-11T09:56:35.633Z,78.75
2018-12-11T09:57:35.622Z,78.75
2018-12-11T09:58:35.592Z,67.50
2018-12-11T09:59:35.585Z,56.25
2018-12-11T10:00:35.663Z,45.00
2018-12-11T10:01:35.576Z,39.38
2018-12-11T10:02:35.568Z,50.62
2018-12-11T10:03:35.631Z,50.62
2018-12-11T10:04:35.544Z,56.25
2018-12-11T10:05:35.553Z,67.50
2018-12-11T10:06:35.827Z,67.50
2018-12-11T10:07:35.850Z,73.12
2018-12-11T10:08:35.471Z,67.50
2018-12-11T10:09:35.458Z,61.88
2018-12-11T10:10:35.448Z,56.25
2018-12-11T10:11:35.515Z,67.50
2018-12-11T10:12:35.496Z,67.50
2018-12-11T10:13:35.876Z,56.25
2018-12-11T10:14:35.409Z,45.00
2018-12-11T10:15:35.440Z,39.38
2018-12-11T10:16:35.389Z,50.62
2018-12-11T10:17:35.378Z,56.25
2018-12-11T10:18:35.413Z,56.25
2018-12-11T10:19:35.366Z,56.25
2018-12-11T10:20:35.359Z,56.25
2018-12-11T10:21:35.334Z,56.25
2018-12-11T10:22:35.364Z,67.50
2018-12-11T10:23:35.350Z,61.88
2018-12-11T10:24:35.421Z,56.25
2018-12-11T10:25:35.664Z,45.00
2018-12-11T10:26:35.411Z,45.00
2018-12-11T10:27:35.273Z,50.62
2018-12-11T10:28:35.271Z,67.50
2018-12-11T10:29:35.250Z,67.50
2018-12-11T10:30:35.481Z,67.50
2018-12-11T10:31:35.230Z,67.50
2018-12-11T10:32:35.588Z,67.50
2018-12-11T10:33:35.211Z,78.75
2018-12-11T10:34:35.220Z,73.12
2018-12-11T10:35:35.193Z,61.88
2018-12-11T10:36:35.312Z,56.25
2018-12-11T10:37:35.169Z,73.12
2018-12-11T10:38:35.160Z,84.38
2018-12-11T10:39:35.674Z,78.75
2018-12-11T10:40:35.154Z,67.50
2018-12-11T10:41:35.135Z,78.75
2018-12-11T10:42:36.013Z,90.00
2018-12-11T10:43:35.155Z,101.25
2018-12-11T10:44:35.096Z,73.12
2018-12-11T10:45:35.601Z,56.25
2018-12-11T10:46:35.603Z,61.88
2018-12-11T10:47:35.168Z,78.75
2018-12-11T10:48:35.177Z,78.75
2018-12-11T10:49:35.095Z,78.75
2018-12-11T10:50:35.063Z,95.62
2018-12-11T10:51:35.022Z,84.38
2018-12-11T10:52:35.014Z,84.38
2018-12-11T10:53:35.412Z,84.38
2018-12-11T10:54:36.129Z,101.25
2018-12-11T10:55:35.000Z,78.75
2018-12-11T10:56:35.014Z,56.25
2018-12-11T10:57:34.984Z,61.88
2018-12-11T10:58:35.675Z,67.50
2018-12-11T10:59:34.942Z,67.50
2018-12-11T11:00:35.675Z,78.75
2018-12-11T11:01:35.658Z,95.62
2018-12-11T11:02:35.684Z,78.75
2018-12-11T11:03:34.976Z,73.12
2018-12-11T11:04:34.944Z,78.75
2018-12-11T11:05:35.570Z,78.75
2018-12-11T11:06:35.021Z,112.50
2018-12-11T11:07:34.868Z,112.50
2018-12-11T11:08:34.882Z,123.75
2018-12-11T11:09:35.591Z,78.75
2018-12-11T11:10:34.862Z,73.12
2018-12-11T11:11:34.845Z,67.50
2018-12-11T11:12:34.993Z,67.50
2018-12-11T11:13:35.224Z,84.38
2018-12-11T11:14:34.785Z,95.62
2018-12-11T11:15:34.791Z,118.12
2018-12-11T11:16:34.766Z,118.12
2018-12-11T11:17:34.835Z,140.62
2018-12-11T11:18:34.879Z,140.62
2018-12-11T11:19:34.746Z,112.50
2018-12-11T11:20:35.161Z,95.62
2018-12-11T11:21:34.712Z,112.50
2018-12-11T11:22:34.727Z,106.88
2018-12-11T11:23:34.696Z,129.38
2018-12-11T11:24:34.936Z,123.75
2018-12-11T11:25:34.753Z,123.75
2018-12-11T11:26:34.690Z,106.88
2018-12-11T11:27:35.017Z,78.75
2018-12-11T11:28:34.772Z,84.38
2018-12-11T11:29:34.722Z,112.50
2018-12-11T11:30:34.829Z,84.38
2018-12-11T11:31:34.616Z,78.75
2018-12-11T11:32:34.599Z,90.00
2018-12-11T11:33:34.630Z,95.62
2018-12-11T11:34:35.063Z,140.62
2018-12-11T11:35:34.567Z,140.62
2018-12-11T11:36:34.670Z,146.25
2018-12-11T11:37:34.550Z,106.88
2018-12-11T11:38:34.534Z,78.75
2018-12-11T11:39:34.526Z,84.38
2018-12-11T11:40:34.511Z,95.62
2018-12-11T11:41:34.887Z,123.75
2018-12-11T11:42:34.705Z,78.75
2018-12-11T11:43:35.094Z,73.12
2018-12-11T11:44:34.470Z,106.88
2018-12-11T11:45:34.476Z,90.00
2018-12-11T11:46:34.449Z,106.88
2018-12-11T11:47:34.469Z,112.50
2018-12-11T11:48:34.862Z,78.75
2018-12-11T11:49:34.422Z,73.12
2018-12-11T11:50:34.408Z,73.12
2018-12-11T11:51:34.403Z,67.50
2018-12-11T11:52:34.426Z,61.88
2018-12-11T11:53:34.374Z,73.12
2018-12-11T11:54:34.482Z,84.38
2018-12-11T11:55:34.778Z,78.75
2018-12-11T11:56:34.393Z,78.75
2018-12-11T11:57:35.178Z,95.62
2018-12-11T11:58:34.375Z,101.25
2018-12-11T11:59:34.349Z,135.00
2018-12-11T12:00:34.656Z,101.25
2018-12-11T12:01:34.301Z,84.38
2018-12-11T12:02:34.290Z,78.75
2018-12-11T12:03:34.295Z,73.12
2018-12-11T12:04:34.288Z,56.25
2018-12-11T12:05:34.444Z,67.50
2018-12-11T12:06:35.451Z,95.62
2018-12-11T12:07:34.835Z,84.38
2018-12-11T12:08:34.274Z,84.38
2018-12-11T12:09:34.215Z,95.62
2018-12-11T12:10:34.195Z,90.00
2018-12-11T12:11:34.186Z,67.50
2018-12-11T12:12:34.298Z,78.75
2018-12-11T12:13:34.174Z,84.38
2018-12-11T12:14:34.155Z,129.38
2018-12-11T12:15:34.157Z,129.38
2018-12-11T12:16:34.133Z,90.00
2018-12-11T12:17:34.133Z,67.50
2018-12-11T12:18:34.423Z,67.50
2018-12-11T12:19:34.526Z,73.12
2018-12-11T12:20:34.094Z,78.75
2018-12-11T12:21:34.106Z,73.12
2018-12-11T12:22:34.095Z,73.12
2018-12-11T12:23:34.104Z,84.38
2018-12-11T12:24:34.392Z,84.38
2018-12-11T12:25:34.372Z,90.00
2018-12-11T12:26:34.111Z,95.62
2018-12-11T12:27:34.037Z,101.25
2018-12-11T12:28:34.049Z,90.00
2018-12-11T12:29:34.011Z,106.88
2018-12-11T12:30:34.304Z,101.25
2018-12-11T12:31:33.986Z,112.50
2018-12-11T12:32:34.031Z,135.00
2018-12-11T12:33:33.963Z,123.75
2018-12-11T12:34:33.952Z,123.75
2018-12-11T12:35:34.113Z,112.50
2018-12-11T12:36:34.154Z,106.88
2018-12-11T12:37:34.422Z,112.50
2018-12-11T12:38:33.946Z,106.88
2018-12-11T12:39:33.922Z,135.00
2018-12-11T12:40:33.931Z,135.00
2018-12-11T12:41:33.882Z,135.00
2018-12-11T12:42:34.013Z,140.62
2018-12-11T12:43:33.960Z,146.25
2018-12-11T12:44:34.271Z,123.75
2018-12-11T12:45:33.834Z,101.25
2018-12-11T12:46:33.825Z,84.38
2018-12-11T12:47:33.812Z,78.75
2018-12-11T12:48:33.916Z,73.12
2018-12-11T12:49:33.791Z,67.50
2018-12-11T12:50:33.797Z,50.62
2018-12-11T12:51:34.132Z,39.38
2018-12-11T12:52:33.758Z,45.00
2018-12-11T12:53:34.678Z,45.00
2018-12-11T12:54:33.959Z,45.00
2018-12-11T12:55:33.749Z,50.62
2018-12-11T12:56:33.719Z,45.00
2018-12-11T12:57:33.706Z,45.00
2018-12-11T12:58:35.165Z,45.00
2018-12-11T12:59:33.734Z,33.75
2018-12-11T13:00:33.817Z,28.12
2018-12-11T13:01:33.678Z,28.12
2018-12-11T13:02:33.651Z,28.12
2018-12-11T13:03:33.650Z,28.12
2018-12-11T13:04:33.673Z,33.75
2018-12-11T13:05:34.135Z,39.38
2018-12-11T13:06:33.776Z,33.75
2018-12-11T13:07:33.618Z,39.38